createdAt,value
2023-01-20T00:00:01.802Z,1001.88
2023-01-20T00:01:01.938Z,1001.87
2023-01-20T00:02:02.276Z,1001.89
2023-01-20T00:03:01.881Z,1001.89
2023-01-20T00:04:02.432Z,1001.89
2023-01-20T00:05:01.803Z,1001.87
2023-01-20T00:06:02.242Z,1001.91
2023-01-20T00:07:02.354Z,1001.92
2023-01-20T00:08:02.752Z,1001.91
2023-01-20T00:09:02.410Z,1001.91
2023-01-20T00:10:02.565Z,1001.96
2023-01-20T00:11:02.729Z,1001.96
2023-01-20T00:12:03.247Z,1001.98
2023-01-20T00:13:02.502Z,1002.01
2023-01-20T00:14:02.762Z,1002.03
2023-01-20T00:15:02.908Z,1002.01
2023-01-20T00:16:03.104Z,1002.00
2023-01-20T00:17:01.867Z,1002.04
2023-01-20T00:18:01.712Z,1002.04
2023-01-20T00:19:01.658Z,1002.02
2023-01-20T00:20:02.105Z,1002.02
2023-01-20T00:21:01.571Z,1002.02
2023-01-20T00:22:02.582Z,1002.02
2023-01-20T00:23:02.303Z,1002.05
2023-01-20T00:24:02.537Z,1001.99
2023-01-20T00:25:02.666Z,1002.01
2023-01-20T00:26:02.120Z,1002.04
2023-01-20T00:27:02.150Z,1002.06
2023-01-20T00:28:02.039Z,1002.04
2023-01-20T00:29:02.055Z,1002.03
2023-01-20T00:30:02.196Z,1002.04
2023-01-20T00:31:01.592Z,1002.04
2023-01-20T00:32:02.760Z,1002.05
2023-01-20T00:33:02.167Z,1002.08
2023-01-20T00:34:02.063Z,1002.10
2023-01-20T00:35:02.441Z,1002.07
2023-01-20T00:36:02.219Z,1002.09
2023-01-20T00:37:01.777Z,1002.10
2023-01-20T00:38:02.239Z,1002.13
2023-01-20T00:39:01.701Z,1002.11
2023-01-20T00:40:02.552Z,1002.12
2023-01-20T00:41:02.018Z,1002.13
2023-01-20T00:42:02.301Z,1002.17
2023-01-20T00:43:02.097Z,1002.18
2023-01-20T00:44:02.106Z,1002.20
2023-01-20T00:45:01.782Z,1002.19
2023-01-20T00:46:02.112Z,1002.17
2023-01-20T00:47:01.847Z,1002.23
2023-01-20T00:48:02.175Z,1002.20
2023-01-20T00:49:01.840Z,1002.25
2023-01-20T00:50:02.130Z,1002.27
2023-01-20T00:51:02.120Z,1002.28
2023-01-20T00:52:02.410Z,1002.21
2023-01-20T00:53:02.197Z,1002.27
2023-01-20T00:54:02.430Z,1002.25
2023-01-20T00:55:02.304Z,1002.25
2023-01-20T00:56:02.054Z,1002.25
2023-01-20T00:57:01.593Z,1002.28
2023-01-20T00:58:01.602Z,1002.26
2023-01-20T00:59:01.983Z,1002.28
2023-01-20T01:00:01.839Z,1002.29
2023-01-20T01:01:01.858Z,1002.28
2023-01-20T01:02:03.157Z,1002.29
2023-01-20T01:03:02.544Z,1002.27
2023-01-20T01:04:02.845Z,1002.33
2023-01-20T01:05:02.665Z,1002.35
2023-01-20T01:06:03.189Z,1002.34
2023-01-20T01:07:01.660Z,1002.39
2023-01-20T01:08:02.192Z,1002.41
2023-01-20T01:09:01.655Z,1002.38
2023-01-20T01:10:01.998Z,1002.40
2023-01-20T01:11:01.653Z,1002.41
2023-01-20T01:12:01.982Z,1002.43
2023-01-20T01:13:02.023Z,1002.44
2023-01-20T01:14:02.240Z,1002.47
2023-01-20T01:15:02.567Z,1002.43
2023-01-20T01:16:02.300Z,1002.45
2023-01-20T01:17:02.288Z,1002.44
2023-01-20T01:18:02.104Z,1002.48
2023-01-20T01:19:02.357Z,1002.52
2023-01-20T01:20:02.319Z,1002.48
2023-01-20T01:21:02.345Z,1002.50
2023-01-20T01:22:02.621Z,1002.49
2023-01-20T01:23:02.222Z,1002.55
2023-01-20T01:24:01.963Z,1002.51
2023-01-20T01:25:02.670Z,1002.55
2023-01-20T01:26:02.093Z,1002.57
2023-01-20T01:27:02.418Z,1002.59
2023-01-20T01:28:02.378Z,1002.58
2023-01-20T01:29:02.807Z,1002.63
2023-01-20T01:30:02.275Z,1002.61
2023-01-20T01:31:02.338Z,1002.63
2023-01-20T01:32:01.648Z,1002.68
2023-01-20T01:33:02.031Z,1002.69
2023-01-20T01:34:01.751Z,1002.66
2023-01-20T01:35:02.112Z,1002.70
2023-01-20T01:36:01.828Z,1002.69
2023-01-20T01:37:02.396Z,1002.69
2023-01-20T01:38:02.172Z,1002.71
2023-01-20T01:39:02.571Z,1002.72
2023-01-20T01:40:02.069Z,1002.73
2023-01-20T01:41:02.094Z,1002.72
2023-01-20T01:42:02.940Z,1002.76
2023-01-20T01:43:02.974Z,1002.73
2023-01-20T01:44:02.398Z,1002.75
2023-01-20T01:45:02.812Z,1002.73
2023-01-20T01:46:02.563Z,1002.72
2023-01-20T01:47:02.144Z,1002.73
2023-01-20T01:48:01.885Z,1002.77
2023-01-20T01:49:02.280Z,1002.75
2023-01-20T01:50:02.554Z,1002.76
2023-01-20T01:51:02.045Z,1002.77
2023-01-20T01:52:02.422Z,1002.76
2023-01-20T01:53:02.734Z,1002.78
2023-01-20T01:54:02.410Z,1002.78
2023-01-20T01:55:02.394Z,1002.84
2023-01-20T01:56:02.814Z,1002.81
2023-01-20T01:57:02.204Z,1002.81
2023-01-20T01:58:02.299Z,1002.82
2023-01-20T01:59:02.199Z,1002.84
2023-01-20T02:00:02.580Z,1002.84
2023-01-20T02:01:02.020Z,1002.85
2023-01-20T02:02:03.371Z,1002.83
2023-01-20T02:03:03.489Z,1002.87
2023-01-20T02:04:03.504Z,1002.84
2023-01-20T02:05:03.708Z,1002.85
2023-01-20T02:06:03.413Z,1002.84
2023-01-20T02:07:03.337Z,1002.83
2023-01-20T02:08:02.822Z,1002.86
2023-01-20T02:09:02.759Z,1002.85
2023-01-20T02:10:03.250Z,1002.85
2023-01-20T02:11:03.261Z,1002.88
2023-01-20T02:12:03.841Z,1002.85
2023-01-20T02:13:03.247Z,1002.86
2023-01-20T02:14:03.646Z,1002.86
2023-01-20T02:15:03.660Z,1002.90
2023-01-20T02:16:03.448Z,1002.87
2023-01-20T02:17:02.894Z,1002.87
2023-01-20T02:18:02.965Z,1002.86
2023-01-20T02:19:03.024Z,1002.90
2023-01-20T02:20:02.801Z,1002.87
2023-01-20T02:21:02.675Z,1002.91
2023-01-20T02:22:02.837Z,1002.94
2023-01-20T02:23:03.176Z,1002.91
2023-01-20T02:24:02.963Z,1002.91
2023-01-20T02:25:02.855Z,1002.94
2023-01-20T02:26:03.242Z,1002.95
2023-01-20T02:27:02.688Z,1002.97
2023-01-20T02:28:02.518Z,1002.96
2023-01-20T02:29:02.291Z,1002.98
2023-01-20T02:30:02.452Z,1002.96
2023-01-20T02:31:02.569Z,1002.97
2023-01-20T02:32:02.989Z,1002.97
2023-01-20T02:33:03.041Z,1003.00
2023-01-20T02:34:02.753Z,1003.00
2023-01-20T02:35:02.764Z,1003.02
2023-01-20T02:36:03.224Z,1003.03
2023-01-20T02:37:03.409Z,1003.03
2023-01-20T02:38:03.091Z,1003.06
2023-01-20T02:39:03.582Z,1003.10
2023-01-20T02:40:03.136Z,1003.11
2023-01-20T02:41:03.171Z,1003.12
2023-01-20T02:42:02.530Z,1003.12
2023-01-20T02:43:02.219Z,1003.11
2023-01-20T02:44:02.227Z,1003.12
2023-01-20T02:45:02.489Z,1003.14
2023-01-20T02:46:02.300Z,1003.15
2023-01-20T02:47:03.195Z,1003.14
2023-01-20T02:48:02.594Z,1003.16
2023-01-20T02:49:02.302Z,1003.13
2023-01-20T02:50:02.431Z,1003.19
2023-01-20T02:51:02.782Z,1003.17
2023-01-20T02:52:02.485Z,1003.20
2023-01-20T02:53:02.962Z,1003.19
2023-01-20T02:54:02.774Z,1003.23
2023-01-20T02:55:03.076Z,1003.24
2023-01-20T02:56:02.552Z,1003.27
2023-01-20T02:57:02.512Z,1003.26
2023-01-20T02:58:02.211Z,1003.25
2023-01-20T02:59:02.631Z,1003.32
2023-01-20T03:00:02.016Z,1003.34
2023-01-20T03:01:02.442Z,1003.35
2023-01-20T03:02:03.056Z,1003.35
2023-01-20T03:03:02.478Z,1003.35
2023-01-20T03:04:02.747Z,1003.38
2023-01-20T03:05:02.352Z,1003.34
2023-01-20T03:06:02.764Z,1003.36
2023-01-20T03:07:03.092Z,1003.39
2023-01-20T03:08:03.153Z,1003.40
2023-01-20T03:09:03.165Z,1003.43
2023-01-20T03:10:02.664Z,1003.43
2023-01-20T03:11:03.180Z,1003.44
2023-01-20T03:12:02.346Z,1003.43
2023-01-20T03:13:01.977Z,1003.43
2023-01-20T03:14:02.192Z,1003.41
2023-01-20T03:15:01.791Z,1003.43
2023-01-20T03:16:01.944Z,1003.44
2023-01-20T03:17:02.924Z,1003.44
2023-01-20T03:18:02.548Z,1003.48
2023-01-20T03:19:02.955Z,1003.45
2023-01-20T03:20:02.597Z,1003.47
2023-01-20T03:21:02.396Z,1003.45
2023-01-20T03:22:02.494Z,1003.41
2023-01-20T03:23:02.383Z,1003.48
2023-01-20T03:24:02.484Z,1003.50
2023-01-20T03:25:01.973Z,1003.49
2023-01-20T03:26:02.415Z,1003.46
2023-01-20T03:27:02.400Z,1003.46
2023-01-20T03:28:02.175Z,1003.45
2023-01-20T03:29:02.372Z,1003.46
2023-01-20T03:30:02.271Z,1003.52
2023-01-20T03:31:02.536Z,1003.50
2023-01-20T03:32:02.829Z,1003.49
2023-01-20T03:33:02.823Z,1003.52
2023-01-20T03:34:02.187Z,1003.52
2023-01-20T03:35:02.467Z,1003.55
2023-01-20T03:36:02.258Z,1003.54
2023-01-20T03:37:02.903Z,1003.53
2023-01-20T03:38:02.371Z,1003.55
2023-01-20T03:39:02.342Z,1003.58
2023-01-20T03:40:02.911Z,1003.61
2023-01-20T03:41:02.713Z,1003.60
2023-01-20T03:42:02.594Z,1003.61
2023-01-20T03:43:03.147Z,1003.63
2023-01-20T03:44:02.657Z,1003.68
2023-01-20T03:45:03.075Z,1003.69
2023-01-20T03:46:02.516Z,1003.66
2023-01-20T03:47:02.524Z,1003.69
2023-01-20T03:48:02.060Z,1003.72
2023-01-20T03:49:02.062Z,1003.75
2023-01-20T03:50:02.438Z,1003.73
2023-01-20T03:51:02.117Z,1003.73
2023-01-20T03:52:02.456Z,1003.71
2023-01-20T03:53:02.542Z,1003.69
2023-01-20T03:54:02.610Z,1003.73
2023-01-20T03:55:02.476Z,1003.71
2023-01-20T03:56:02.969Z,1003.70
2023-01-20T03:57:02.764Z,1003.71
2023-01-20T03:58:02.572Z,1003.68
2023-01-20T03:59:02.860Z,1003.71
2023-01-20T04:00:02.862Z,1003.72
2023-01-20T04:01:02.689Z,1003.72
2023-01-20T04:02:02.209Z,1003.73
2023-01-20T04:03:02.010Z,1003.76
2023-01-20T04:04:02.113Z,1003.76
2023-01-20T04:05:02.493Z,1003.77
2023-01-20T04:06:01.906Z,1003.77
2023-01-20T04:07:02.285Z,1003.78
2023-01-20T04:08:02.431Z,1003.83
2023-01-20T04:09:02.904Z,1003.79
2023-01-20T04:10:02.415Z,1003.82
2023-01-20T04:11:02.703Z,1003.78
2023-01-20T04:12:02.417Z,1003.77
2023-01-20T04:13:03.012Z,1003.79
2023-01-20T04:14:02.886Z,1003.76
2023-01-20T04:15:02.654Z,1003.78
2023-01-20T04:16:02.481Z,1003.78
2023-01-20T04:17:02.487Z,1003.72
2023-01-20T04:18:02.702Z,1003.75
2023-01-20T04:19:02.933Z,1003.72
2023-01-20T04:20:02.978Z,1003.74
2023-01-20T04:21:02.652Z,1003.72
2023-01-20T04:22:02.278Z,1003.76
2023-01-20T04:23:02.472Z,1003.77
2023-01-20T04:24:02.138Z,1003.82
2023-01-20T04:25:01.970Z,1003.80
2023-01-20T04:26:02.333Z,1003.84
2023-01-20T04:27:01.945Z,1003.86
2023-01-20T04:28:02.160Z,1003.85
2023-01-20T04:29:01.651Z,1003.87
2023-01-20T04:30:02.123Z,1003.87
2023-01-20T04:31:01.929Z,1003.88
2023-01-20T04:32:02.423Z,1003.87
2023-01-20T04:33:02.514Z,1003.86
2023-01-20T04:34:02.151Z,1003.89
2023-01-20T04:35:02.504Z,1003.84
2023-01-20T04:36:02.330Z,1003.87
2023-01-20T04:37:01.767Z,1003.90
2023-01-20T04:38:02.037Z,1003.88
2023-01-20T04:39:02.124Z,1003.89
2023-01-20T04:40:01.589Z,1003.91
2023-01-20T04:41:03.633Z,1003.92
2023-01-20T04:42:02.068Z,1003.91
2023-01-20T04:43:02.462Z,1003.91
2023-01-20T04:44:02.343Z,1003.94
2023-01-20T04:45:02.700Z,1003.92
2023-01-20T04:46:02.197Z,1003.97
2023-01-20T04:47:02.313Z,1004.00
2023-01-20T04:48:02.298Z,1003.98
2023-01-20T04:49:02.697Z,1003.97
2023-01-20T04:50:02.383Z,1003.99
2023-01-20T04:51:02.158Z,1004.00
2023-01-20T04:52:01.437Z,1004.00
2023-01-20T04:53:01.486Z,1004.04
2023-01-20T04:54:01.906Z,1004.00
2023-01-20T04:55:01.644Z,1004.02
2023-01-20T04:56:01.977Z,1004.02
2023-01-20T04:57:01.942Z,1004.02
2023-01-20T04:58:01.712Z,1004.00
2023-01-20T04:59:01.929Z,1004.02
2023-01-20T05:00:02.023Z,1003.98
2023-01-20T05:01:02.107Z,1004.05
2023-01-20T05:02:02.299Z,1004.06
2023-01-20T05:03:02.315Z,1004.07
2023-01-20T05:04:02.456Z,1004.06
2023-01-20T05:05:02.427Z,1004.06
2023-01-20T05:06:02.390Z,1004.05
2023-01-20T05:07:02.361Z,1004.10
2023-01-20T05:08:02.337Z,1004.12
2023-01-20T05:09:02.724Z,1004.09
2023-01-20T05:10:02.727Z,1004.13
2023-01-20T05:11:02.545Z,1004.09
2023-01-20T05:12:02.156Z,1004.12
2023-01-20T05:13:02.362Z,1004.10
2023-01-20T05:14:02.474Z,1004.15
2023-01-20T05:15:02.123Z,1004.17
2023-01-20T05:16:03.239Z,1004.20
2023-01-20T05:17:02.823Z,1004.20
2023-01-20T05:18:02.529Z,1004.18
2023-01-20T05:19:02.904Z,1004.18
2023-01-20T05:20:02.883Z,1004.20
2023-01-20T05:21:02.587Z,1004.23
2023-01-20T05:22:03.101Z,1004.17
2023-01-20T05:23:03.141Z,1004.18
2023-01-20T05:24:02.793Z,1004.21
2023-01-20T05:25:02.861Z,1004.17
2023-01-20T05:26:02.840Z,1004.17
2023-01-20T05:27:02.313Z,1004.16
2023-01-20T05:28:02.175Z,1004.18
2023-01-20T05:29:02.459Z,1004.17
2023-01-20T05:30:01.969Z,1004.21
2023-01-20T05:31:02.283Z,1004.19
2023-01-20T05:32:02.372Z,1004.22
2023-01-20T05:33:02.319Z,1004.25
2023-01-20T05:34:02.813Z,1004.26
2023-01-20T05:35:02.203Z,1004.28
2023-01-20T05:36:02.525Z,1004.26
2023-01-20T05:37:02.952Z,1004.24
2023-01-20T05:38:02.987Z,1004.29
2023-01-20T05:39:02.608Z,1004.26
2023-01-20T05:40:02.948Z,1004.26
2023-01-20T05:41:03.025Z,1004.27
2023-01-20T05:42:02.494Z,1004.29
2023-01-20T05:43:02.479Z,1004.29
2023-01-20T05:44:02.493Z,1004.28
2023-01-20T05:45:02.182Z,1004.31
2023-01-20T05:46:02.667Z,1004.32
2023-01-20T05:47:02.100Z,1004.31
2023-01-20T05:48:02.376Z,1004.32
2023-01-20T05:49:02.107Z,1004.33
2023-01-20T05:50:02.436Z,1004.40
2023-01-20T05:51:02.214Z,1004.42
2023-01-20T05:52:02.730Z,1004.41
2023-01-20T05:53:02.735Z,1004.39
2023-01-20T05:54:02.275Z,1004.45
2023-01-20T05:55:02.577Z,1004.46
2023-01-20T05:56:02.349Z,1004.45
2023-01-20T05:57:02.099Z,1004.47
2023-01-20T05:58:02.068Z,1004.49
2023-01-20T05:59:01.754Z,1004.50
2023-01-20T06:00:02.122Z,1004.50
2023-01-20T06:01:02.235Z,1004.52
2023-01-20T06:02:02.876Z,1004.54
2023-01-20T06:03:03.485Z,1004.54
2023-01-20T06:04:02.949Z,1004.56
2023-01-20T06:05:03.135Z,1004.54
2023-01-20T06:06:02.730Z,1004.55
2023-01-20T06:07:03.024Z,1004.58
2023-01-20T06:08:02.993Z,1004.59
2023-01-20T06:09:02.958Z,1004.59
2023-01-20T06:10:03.051Z,1004.64
2023-01-20T06:11:02.635Z,1004.60
2023-01-20T06:12:03.631Z,1004.61
2023-01-20T06:13:03.675Z,1004.63
2023-01-20T06:14:02.991Z,1004.59
2023-01-20T06:15:03.361Z,1004.57
2023-01-20T06:16:05.657Z,1004.56
2023-01-20T06:17:03.686Z,1004.59
2023-01-20T06:18:03.364Z,1004.62
2023-01-20T06:19:03.327Z,1004.65
2023-01-20T06:20:03.322Z,1004.64
2023-01-20T06:21:03.539Z,1004.65
2023-01-20T06:22:02.995Z,1004.63
2023-01-20T06:23:02.747Z,1004.65
2023-01-20T06:24:03.216Z,1004.67
2023-01-20T06:25:02.595Z,1004.70
2023-01-20T06:26:03.108Z,1004.68
2023-01-20T06:27:03.124Z,1004.74
2023-01-20T06:28:03.527Z,1004.73
2023-01-20T06:29:03.107Z,1004.73
2023-01-20T06:30:03.463Z,1004.72
2023-01-20T06:31:03.191Z,1004.78
2023-01-20T06:32:02.574Z,1004.75
2023-01-20T06:33:02.340Z,1004.77
2023-01-20T06:34:02.782Z,1004.78
2023-01-20T06:35:02.331Z,1004.80
2023-01-20T06:36:02.741Z,1004.84
2023-01-20T06:37:02.895Z,1004.85
2023-01-20T06:38:02.917Z,1004.89
2023-01-20T06:39:02.396Z,1004.86
2023-01-20T06:40:02.470Z,1004.88
2023-01-20T06:41:02.875Z,1004.86
2023-01-20T06:42:03.271Z,1004.88
2023-01-20T06:43:02.856Z,1004.87
2023-01-20T06:44:03.299Z,1004.89
2023-01-20T06:45:03.043Z,1004.89
2023-01-20T06:46:02.748Z,1004.90
2023-01-20T06:47:02.562Z,1004.91
2023-01-20T06:48:02.324Z,1004.92
2023-01-20T06:49:02.865Z,1004.92
2023-01-20T06:50:02.903Z,1004.95
2023-01-20T06:51:02.672Z,1004.97
2023-01-20T06:52:02.520Z,1004.98
2023-01-20T06:53:02.960Z,1004.97
2023-01-20T06:54:02.773Z,1004.99
2023-01-20T06:55:02.878Z,1004.98
2023-01-20T06:56:02.641Z,1005.02
2023-01-20T06:57:03.209Z,1005.01
2023-01-20T06:58:02.639Z,1005.03
2023-01-20T06:59:03.152Z,1005.05
2023-01-20T07:00:02.626Z,1005.04
2023-01-20T07:01:03.363Z,1005.05
2023-01-20T07:02:03.820Z,1005.10
2023-01-20T07:03:03.560Z,1005.11
2023-01-20T07:04:03.708Z,1005.17
2023-01-20T07:05:03.572Z,1005.15
2023-01-20T07:06:03.611Z,1005.16
2023-01-20T07:07:03.166Z,1005.17
2023-01-20T07:08:02.889Z,1005.21
2023-01-20T07:09:02.982Z,1005.21
2023-01-20T07:10:02.719Z,1005.22
2023-01-20T07:11:03.238Z,1005.18
2023-01-20T07:12:03.153Z,1005.23
2023-01-20T07:13:03.625Z,1005.23
2023-01-20T07:14:03.114Z,1005.24
2023-01-20T07:15:03.562Z,1005.27
2023-01-20T07:16:03.483Z,1005.28
2023-01-20T07:17:03.877Z,1005.25
2023-01-20T07:18:03.432Z,1005.31
2023-01-20T07:19:03.560Z,1005.29
2023-01-20T07:20:03.305Z,1005.34
2023-01-20T07:21:03.811Z,1005.31
2023-01-20T07:22:02.504Z,1005.34
2023-01-20T07:23:02.556Z,1005.36
2023-01-20T07:24:02.763Z,1005.36
2023-01-20T07:25:02.581Z,1005.33
2023-01-20T07:26:02.958Z,1005.35
2023-01-20T07:27:02.772Z,1005.35
2023-01-20T07:28:02.983Z,1005.36
2023-01-20T07:29:02.806Z,1005.38
2023-01-20T07:30:02.903Z,1005.39
2023-01-20T07:31:03.022Z,1005.43
2023-01-20T07:32:03.013Z,1005.38
2023-01-20T07:33:02.555Z,1005.40
2023-01-20T07:34:02.601Z,1005.39
2023-01-20T07:35:03.025Z,1005.41
2023-01-20T07:36:02.974Z,1005.43
2023-01-20T07:37:02.702Z,1005.43
2023-01-20T07:38:02.874Z,1005.45
2023-01-20T07:39:02.696Z,1005.44
2023-01-20T07:40:03.159Z,1005.45
2023-01-20T07:41:04.961Z,1005.47
2023-01-20T07:42:03.069Z,1005.47
2023-01-20T07:43:03.594Z,1005.48
2023-01-20T07:44:03.223Z,1005.53
2023-01-20T07:45:03.029Z,1005.54
2023-01-20T07:46:03.361Z,1005.56
2023-01-20T07:47:02.522Z,1005.56
2023-01-20T07:48:02.270Z,1005.58
2023-01-20T07:49:03.107Z,1005.60
2023-01-20T07:50:02.778Z,1005.58
2023-01-20T07:51:02.523Z,1005.59
2023-01-20T07:52:03.497Z,1005.58
2023-01-20T07:53:03.056Z,1005.59
2023-01-20T07:54:03.202Z,1005.60
2023-01-20T07:55:03.128Z,1005.61
2023-01-20T07:56:03.048Z,1005.66
2023-01-20T07:57:02.725Z,1005.64
2023-01-20T07:58:02.611Z,1005.68
2023-01-20T07:59:03.160Z,1005.70
2023-01-20T08:00:02.820Z,1005.69
2023-01-20T08:01:02.872Z,1005.72
2023-01-20T08:02:01.986Z,1005.76
2023-01-20T08:03:02.247Z,1005.74
2023-01-20T08:04:01.785Z,1005.75
2023-01-20T08:05:01.805Z,1005.72
2023-01-20T08:06:01.941Z,1005.73
2023-01-20T08:07:02.746Z,1005.74
2023-01-20T08:08:02.452Z,1005.76
2023-01-20T08:09:02.767Z,1005.78
2023-01-20T08:10:02.462Z,1005.79
2023-01-20T08:11:02.343Z,1005.81
2023-01-20T08:12:01.888Z,1005.81
2023-01-20T08:13:02.143Z,1005.79
2023-01-20T08:14:01.848Z,1005.79
2023-01-20T08:15:01.807Z,1005.77
2023-01-20T08:16:01.638Z,1005.82
2023-01-20T08:17:02.194Z,1005.84
2023-01-20T08:18:01.954Z,1005.83
2023-01-20T08:19:01.999Z,1005.85
2023-01-20T08:20:01.879Z,1005.88
2023-01-20T08:21:02.344Z,1005.89
2023-01-20T08:22:02.512Z,1005.90
2023-01-20T08:23:02.524Z,1005.92
2023-01-20T08:24:02.437Z,1005.94
2023-01-20T08:25:02.498Z,1005.93
2023-01-20T08:26:02.440Z,1005.98
2023-01-20T08:27:02.374Z,1005.98
2023-01-20T08:28:03.842Z,1006.00
2023-01-20T08:29:02.182Z,1006.01
2023-01-20T08:30:02.025Z,1006.07
2023-01-20T08:31:02.693Z,1006.07
2023-01-20T08:32:02.429Z,1006.09
2023-01-20T08:33:02.747Z,1006.07
2023-01-20T08:34:02.648Z,1006.07
2023-01-20T08:35:02.575Z,1006.05
2023-01-20T08:36:02.363Z,1006.05
2023-01-20T08:37:02.575Z,1006.08
2023-01-20T08:38:02.427Z,1006.07
2023-01-20T08:39:02.355Z,1006.06
2023-01-20T08:40:02.445Z,1006.11
2023-01-20T08:41:02.348Z,1006.06
2023-01-20T08:42:02.133Z,1006.08
2023-01-20T08:43:02.022Z,1006.13
2023-01-20T08:44:02.115Z,1006.14
2023-01-20T08:45:02.051Z,1006.15
2023-01-20T08:46:01.895Z,1006.14
2023-01-20T08:47:02.580Z,1006.17
2023-01-20T08:48:02.278Z,1006.23
2023-01-20T08:49:02.090Z,1006.21
2023-01-20T08:50:01.891Z,1006.20
2023-01-20T08:51:02.386Z,1006.26
2023-01-20T08:52:02.516Z,1006.27
2023-01-20T08:53:02.500Z,1006.25
2023-01-20T08:54:02.229Z,1006.24
2023-01-20T08:55:02.170Z,1006.27
2023-01-20T08:56:02.708Z,1006.20
2023-01-20T08:57:02.393Z,1006.24
2023-01-20T08:58:01.787Z,1006.21
2023-01-20T08:59:02.190Z,1006.25
2023-01-20T09:00:01.833Z,1006.23
2023-01-20T09:01:02.185Z,1006.23
2023-01-20T09:02:02.143Z,1006.26
2023-01-20T09:03:02.275Z,1006.28
2023-01-20T09:04:06.170Z,1006.26
2023-01-20T09:05:01.791Z,1006.31
2023-01-20T09:06:02.200Z,1006.28
2023-01-20T09:07:02.820Z,1006.28
2023-01-20T09:08:02.853Z,1006.30
2023-01-20T09:09:04.482Z,1006.30
2023-01-20T09:10:02.354Z,1006.26
2023-01-20T09:11:02.881Z,1006.30
2023-01-20T09:12:02.790Z,1006.30
2023-01-20T09:13:02.940Z,1006.31
2023-01-20T09:14:02.780Z,1006.31
2023-01-20T09:15:04.937Z,1006.32
2023-01-20T09:16:02.912Z,1006.32
2023-01-20T09:17:02.403Z,1006.31
2023-01-20T09:18:02.540Z,1006.33
2023-01-20T09:19:02.009Z,1006.29
2023-01-20T09:20:02.249Z,1006.29
2023-01-20T09:21:02.548Z,1006.28
2023-01-20T09:22:02.028Z,1006.28
2023-01-20T09:23:02.036Z,1006.30
2023-01-20T09:24:01.733Z,1006.30
2023-01-20T09:25:01.623Z,1006.28
2023-01-20T09:26:02.082Z,1006.29
2023-01-20T09:27:02.458Z,1006.34
2023-01-20T09:28:02.409Z,1006.33
2023-01-20T09:29:02.097Z,1006.36
2023-01-20T09:30:02.422Z,1006.34
2023-01-20T09:31:02.245Z,1006.37
2023-01-20T09:32:02.849Z,1006.31
2023-01-20T09:33:02.261Z,1006.36
2023-01-20T09:34:02.581Z,1006.33
2023-01-20T09:35:02.754Z,1006.32
2023-01-20T09:36:03.056Z,1006.31
2023-01-20T09:37:02.376Z,1006.36
2023-01-20T09:38:02.265Z,1006.33
2023-01-20T09:39:02.170Z,1006.33
2023-01-20T09:40:02.231Z,1006.35
2023-01-20T09:41:01.982Z,1006.33
2023-01-20T09:42:02.946Z,1006.36
2023-01-20T09:43:02.476Z,1006.36
2023-01-20T09:44:02.402Z,1006.34
2023-01-20T09:45:02.714Z,1006.38
2023-01-20T09:46:02.621Z,1006.37
2023-01-20T09:47:01.918Z,1006.38
2023-01-20T09:48:02.349Z,1006.44
2023-01-20T09:49:01.955Z,1006.41
2023-01-20T09:50:02.269Z,1006.40
2023-01-20T09:51:01.841Z,1006.40
2023-01-20T09:52:02.307Z,1006.37
2023-01-20T09:53:02.043Z,1006.42
2023-01-20T09:54:02.370Z,1006.43
2023-01-20T09:55:02.321Z,1006.42
2023-01-20T09:56:02.183Z,1006.48
2023-01-20T09:57:02.222Z,1006.50
2023-01-20T09:58:02.683Z,1006.51
2023-01-20T09:59:02.548Z,1006.55
2023-01-20T10:00:02.520Z,1006.53
2023-01-20T10:01:02.445Z,1006.55
2023-01-20T10:02:03.297Z,1006.59
2023-01-20T10:03:02.995Z,1006.56
2023-01-20T10:04:04.841Z,1006.52
2023-01-20T10:05:02.652Z,1006.55
2023-01-20T10:06:03.194Z,1006.56
2023-01-20T10:07:03.610Z,1006.54
2023-01-20T10:08:03.344Z,1006.48
2023-01-20T10:09:06.292Z,1006.54
2023-01-20T10:10:03.503Z,1006.50
2023-01-20T10:11:03.375Z,1006.51
2023-01-20T10:12:03.327Z,1006.50
2023-01-20T10:13:03.538Z,1006.48
2023-01-20T10:14:03.520Z,1006.49
2023-01-20T10:15:03.516Z,1006.51
2023-01-20T10:16:03.632Z,1006.53
2023-01-20T10:17:02.722Z,1006.53
2023-01-20T10:18:02.705Z,1006.51
2023-01-20T10:19:02.573Z,1006.48
2023-01-20T10:20:02.556Z,1006.49
2023-01-20T10:21:02.646Z,1006.45
2023-01-20T10:22:02.933Z,1006.46
2023-01-20T10:23:03.484Z,1006.42
2023-01-20T10:24:03.329Z,1006.45
2023-01-20T10:25:03.124Z,1006.47
2023-01-20T10:26:03.377Z,1006.44
2023-01-20T10:27:02.312Z,1006.46
2023-01-20T10:28:02.238Z,1006.45
2023-01-20T10:29:02.639Z,1006.44
2023-01-20T10:30:02.527Z,1006.43
2023-01-20T10:31:02.747Z,1006.46
2023-01-20T10:32:02.459Z,1006.42
2023-01-20T10:33:03.020Z,1006.44
2023-01-20T10:34:02.618Z,1006.43
2023-01-20T10:35:02.965Z,1006.46
2023-01-20T10:36:02.638Z,1006.43
2023-01-20T10:37:03.064Z,1006.41
2023-01-20T10:38:03.018Z,1006.39
2023-01-20T10:39:03.514Z,1006.40
2023-01-20T10:40:03.230Z,1006.43
2023-01-20T10:41:03.477Z,1006.41
2023-01-20T10:42:02.266Z,1006.36
2023-01-20T10:43:02.209Z,1006.38
2023-01-20T10:44:02.515Z,1006.39
2023-01-20T10:45:02.564Z,1006.39
2023-01-20T10:46:02.715Z,1006.40
2023-01-20T10:47:02.292Z,1006.40
2023-01-20T10:48:02.583Z,1006.41
2023-01-20T10:49:02.535Z,1006.38
2023-01-20T10:50:02.670Z,1006.36
2023-01-20T10:51:02.569Z,1006.41
2023-01-20T10:52:02.638Z,1006.42
2023-01-20T10:53:03.538Z,1006.38
2023-01-20T10:54:02.796Z,1006.41
2023-01-20T10:55:02.663Z,1006.42
2023-01-20T10:56:03.061Z,1006.45
2023-01-20T10:57:02.135Z,1006.46
2023-01-20T10:58:02.278Z,1006.43
2023-01-20T10:59:02.396Z,1006.40
2023-01-20T11:00:02.284Z,1006.42
2023-01-20T11:01:02.179Z,1006.44
2023-01-20T11:02:11.901Z,1006.44
2023-01-20T11:03:03.325Z,1006.43
2023-01-20T11:04:03.089Z,1006.40
2023-01-20T11:05:02.631Z,1006.44
2023-01-20T11:06:02.683Z,1006.43
2023-01-20T11:07:02.773Z,1006.42
2023-01-20T11:08:02.293Z,1006.45
2023-01-20T11:09:02.848Z,1006.43
2023-01-20T11:10:02.247Z,1006.36
2023-01-20T11:11:02.731Z,1006.36
2023-01-20T11:12:02.546Z,1006.41
2023-01-20T11:13:02.576Z,1006.40
2023-01-20T11:14:02.450Z,1006.41
2023-01-20T11:15:03.002Z,1006.44
2023-01-20T11:16:03.042Z,1006.40
2023-01-20T11:17:02.952Z,1006.44
2023-01-20T11:18:02.926Z,1006.44
2023-01-20T11:19:02.874Z,1006.45
2023-01-20T11:20:02.616Z,1006.42
2023-01-20T11:21:03.135Z,1006.44
2023-01-20T11:22:02.363Z,1006.41
2023-01-20T11:23:02.306Z,1006.46
2023-01-20T11:24:02.512Z,1006.49
2023-01-20T11:25:02.680Z,1006.49
2023-01-20T11:26:02.690Z,1006.50
2023-01-20T11:27:02.770Z,1006.51
2023-01-20T11:28:02.980Z,1006.47
2023-01-20T11:29:02.878Z,1006.45
2023-01-20T11:30:02.640Z,1006.44
2023-01-20T11:31:02.740Z,1006.42
2023-01-20T11:32:02.713Z,1006.44
2023-01-20T11:33:02.687Z,1006.42
2023-01-20T11:34:02.840Z,1006.41
2023-01-20T11:35:02.637Z,1006.42
2023-01-20T11:36:02.531Z,1006.40
2023-01-20T11:37:02.236Z,1006.44
2023-01-20T11:38:02.418Z,1006.40
2023-01-20T11:39:02.315Z,1006.40
2023-01-20T11:40:02.388Z,1006.42
2023-01-20T11:41:02.069Z,1006.40
2023-01-20T11:42:02.519Z,1006.39
2023-01-20T11:43:02.209Z,1006.36
2023-01-20T11:44:02.640Z,1006.41
2023-01-20T11:45:21.635Z,1006.32
2023-01-20T11:46:02.188Z,1006.33
2023-01-20T11:47:02.948Z,1006.35
2023-01-20T11:48:03.140Z,1006.33
2023-01-20T11:49:02.711Z,1006.32
2023-01-20T11:50:02.603Z,1006.32
2023-01-20T11:51:03.156Z,1006.34
2023-01-20T11:52:03.171Z,1006.32
2023-01-20T11:53:03.258Z,1006.33
2023-01-20T11:54:03.190Z,1006.35
2023-01-20T11:55:03.091Z,1006.35
2023-01-20T11:56:02.948Z,1006.36
2023-01-20T11:57:02.784Z,1006.31
2023-01-20T11:58:02.777Z,1006.36
2023-01-20T11:59:02.571Z,1006.35
2023-01-20T12:00:02.573Z,1006.35
2023-01-20T12:01:02.903Z,1006.35
2023-01-20T12:02:03.242Z,1006.33
2023-01-20T12:03:02.837Z,1006.37
2023-01-20T12:04:03.357Z,1006.33
2023-01-20T12:05:03.273Z,1006.34